Denver, Colorado
Traffic Map
Current Weather Conditions
Denver, Colorado
Overcast Heavy Rain
Overcast
48°
Feels Like: 44°
Wind Chill: 44° Ceiling: 3100
Heat Index: 48° Visibility: 5mi
Dew Point: 45° Wind: 9mph
Humidity: 87% Direction: 20° (NNE)
Pressure: 30.37in Gusts: 0mph
Raw Report DataKBJC 231253Z AUTO 02008KT 5SM +RA OVC031 09/07 A3037 RMK AO2
Traffic Incident Summary
Active as of:
Severity:
Category:
InformationThere was an issue retrieving the traffic information for this location. Please try a different location or try again shortly.
Advertisements
Track Severe Weather on mobile